sensor_id;sensor_type;location;lat;lon;timestamp;pressure;altitude;pressure_sealevel;temperature;humidity
5284;BME280;15377;48.540;9.268;2023-05-06T00:00:24;97503.53;;;14.00;100.00
5284;BME280;15377;48.540;9.268;2023-05-06T00:02:49;97500.28;;;14.02;100.00
5284;BME280;15377;48.540;9.268;2023-05-06T00:05:15;97494.75;;;14.02;100.00
5284;BME280;15377;48.540;9.268;2023-05-06T00:07:43;97501.06;;;14.02;100.00
5284;BME280;15377;48.540;9.268;2023-05-06T00:10:09;97490.44;;;13.95;100.00
5284;BME280;15377;48.540;9.268;2023-05-06T00:12:34;97502.00;;;13.99;100.00
5284;BME280;15377;48.540;9.268;2023-05-06T00:15:00;97495.19;;;13.95;100.00
5284;BME280;15377;48.540;9.268;2023-05-06T00:17:25;97490.66;;;13.92;100.00
5284;BME280;15377;48.540;9.268;2023-05-06T00:19:50;97474.25;;;13.83;100.00
5284;BME280;15377;48.540;9.268;2023-05-06T00:22:16;97475.03;;;13.89;100.00
5284;BME280;15377;48.540;9.268;2023-05-06T00:24:42;97483.59;;;13.91;100.00
5284;BME280;15377;48.540;9.268;2023-05-06T00:27:07;97484.06;;;13.84;100.00
5284;BME280;15377;48.540;9.268;2023-05-06T00:29:33;97486.38;;;13.91;100.00
5284;BME280;15377;48.540;9.268;2023-05-06T00:31:58;97481.53;;;13.86;100.00
5284;BME280;15377;48.540;9.268;2023-05-06T00:34:23;97493.16;;;13.90;100.00
5284;BME280;15377;48.540;9.268;2023-05-06T00:36:49;97486.63;;;13.93;100.00
5284;BME280;15377;48.540;9.268;2023-05-06T00:39:14;97483.88;;;13.93;100.00
5284;BME280;15377;48.540;9.268;2023-05-06T00:41:40;97484.84;;;13.90;100.00
5284;BME280;15377;48.540;9.268;2023-05-06T00:44:05;97480.47;;;13.78;100.00
5284;BME280;15377;48.540;9.268;2023-05-06T00:46:31;97487.53;;;13.79;100.00
5284;BME280;15377;48.540;9.268;2023-05-06T00:48:57;97488.03;;;13.77;100.00
5284;BME280;15377;48.540;9.268;2023-05-06T00:51:22;97491.28;;;13.76;100.00
5284;BME280;15377;48.540;9.268;2023-05-06T00:53:48;97497.56;;;13.76;100.00
5284;BME280;15377;48.540;9.268;2023-05-06T00:56:14;97494.84;;;13.82;100.00
5284;BME280;15377;48.540;9.268;2023-05-06T00:58:42;97499.13;;;13.83;100.00
5284;BME280;15377;48.540;9.268;2023-05-06T01:01:08;97494.56;;;13.80;100.00
5284;BME280;15377;48.540;9.268;2023-05-06T01:03:33;97473.34;;;13.66;100.00
5284;BME280;15377;48.540;9.268;2023-05-06T01:14:33;97491.97;;;13.71;100.00
5284;BME280;15377;48.540;9.268;2023-05-06T01:17:03;97482.13;;;13.64;100.00
5284;BME280;15377;48.540;9.268;2023-05-06T01:19:44;97486.16;;;13.63;100.00
5284;BME280;15377;48.540;9.268;2023-05-06T01:22:14;97490.16;;;13.62;100.00
5284;BME280;15377;48.540;9.268;2023-05-06T01:24:42;97495.91;;;13.59;100.00
5284;BME280;15377;48.540;9.268;2023-05-06T01:27:09;97493.59;;;13.52;100.00
5284;BME280;15377;48.540;9.268;2023-05-06T01:29:36;97488.91;;;13.38;100.00
5284;BME280;15377;48.540;9.268;2023-05-06T01:40:50;97502.13;;;13.03;100.00
5284;BME280;15377;48.540;9.268;2023-05-06T01:43:20;97505.69;;;12.89;100.00
5284;BME280;15377;48.540;9.268;2023-05-06T01:45:46;97493.28;;;12.79;100.00
5284;BME280;15377;48.540;9.268;2023-05-06T01:48:20;97490.56;;;12.84;100.00
5284;BME280;15377;48.540;9.268;2023-05-06T01:50:46;97490.44;;;12.93;100.00
5284;BME280;15377;48.540;9.268;2023-05-06T01:53:11;97482.50;;;12.81;100.00
5284;BME280;15377;48.540;9.268;2023-05-06T01:55:37;97501.00;;;12.75;100.00
5284;BME280;15377;48.540;9.268;2023-05-06T01:58:02;97489.81;;;12.64;100.00
5284;BME280;15377;48.540;9.268;2023-05-06T02:00:28;97498.22;;;12.75;100.00
5284;BME280;15377;48.540;9.268;2023-05-06T02:02:53;97497.47;;;12.74;100.00
5284;BME280;15377;48.540;9.268;2023-05-06T02:05:18;97496.31;;;12.81;100.00
5284;BME280;15377;48.540;9.268;2023-05-06T02:07:44;97498.50;;;12.77;100.00
5284;BME280;15377;48.540;9.268;2023-05-06T02:10:10;97495.25;;;12.78;100.00
5284;BME280;15377;48.540;9.268;2023-05-06T02:12:35;97500.47;;;12.71;100.00
5284;BME280;15377;48.540;9.268;2023-05-06T02:15:00;97497.25;;;12.58;100.00
5284;BME280;15377;48.540;9.268;2023-05-06T02:17:26;97500.50;;;12.56;100.00
5284;BME280;15377;48.540;9.268;2023-05-06T02:19:51;97498.38;;;12.66;100.00
5284;BME280;15377;48.540;9.268;2023-05-06T02:22:16;97496.44;;;12.72;100.00
5284;BME280;15377;48.540;9.268;2023-05-06T02:24:42;97491.66;;;12.72;100.00
5284;BME280;15377;48.540;9.268;2023-05-06T02:27:07;97480.28;;;12.65;100.00
5284;BME280;15377;48.540;9.268;2023-05-06T02:29:33;97483.72;;;12.60;100.00
5284;BME280;15377;48.540;9.268;2023-05-06T02:31:58;97477.50;;;12.45;100.00
5284;BME280;15377;48.540;9.268;2023-05-06T02:34:23;97476.81;;;12.30;100.00
5284;BME280;15377;48.540;9.268;2023-05-06T02:36:49;97485.28;;;12.26;100.00
5284;BME280;15377;48.540;9.268;2023-05-06T02:39:14;97480.09;;;12.14;100.00
5284;BME280;15377;48.540;9.268;2023-05-06T02:41:40;97480.69;;;12.03;100.00
5284;BME280;15377;48.540;9.268;2023-05-06T02:44:05;97472.34;;;11.98;100.00
5284;BME280;15377;48.540;9.268;2023-05-06T02:46:31;97469.31;;;11.96;100.00
5284;BME280;15377;48.540;9.268;2023-05-06T02:48:56;97465.69;;;11.90;100.00
5284;BME280;15377;48.540;9.268;2023-05-06T02:51:22;97479.78;;;11.92;100.00
5284;BME280;15377;48.540;9.268;2023-05-06T02:53:47;97473.72;;;11.73;100.00
5284;BME280;15377;48.540;9.268;2023-05-06T02:56:12;97468.50;;;11.61;100.00
5284;BME280;15377;48.540;9.268;2023-05-06T02:58:38;97463.34;;;11.54;100.00
5284;BME280;15377;48.540;9.268;2023-05-06T03:01:03;97461.75;;;11.62;100.00
5284;BME280;15377;48.540;9.268;2023-05-06T03:03:28;97460.34;;;11.66;100.00
5284;BME280;15377;48.540;9.268;2023-05-06T03:05:54;97465.72;;;11.75;100.00
5284;BME280;15377;48.540;9.268;2023-05-06T03:08:19;97471.53;;;11.63;100.00
5284;BME280;15377;48.540;9.268;2023-05-06T03:10:44;97470.88;;;11.39;100.00
5284;BME280;15377;48.540;9.268;2023-05-06T03:13:10;97459.25;;;11.20;100.00
5284;BME280;15377;48.540;9.268;2023-05-06T03:15:35;97474.47;;;11.16;100.00
5284;BME280;15377;48.540;9.268;2023-05-06T03:18:01;97471.78;;;11.07;100.00
5284;BME280;15377;48.540;9.268;2023-05-06T03:20:26;97471.22;;;11.03;100.00
5284;BME280;15377;48.540;9.268;2023-05-06T03:22:53;97477.66;;;11.00;100.00
5284;BME280;15377;48.540;9.268;2023-05-06T03:25:19;97489.88;;;10.84;100.00
5284;BME280;15377;48.540;9.268;2023-05-06T03:27:44;97484.25;;;10.79;100.00
5284;BME280;15377;48.540;9.268;2023-05-06T03:30:10;97489.59;;;10.82;100.00
5284;BME280;15377;48.540;9.268;2023-05-06T03:32:36;97474.22;;;10.90;100.00
5284;BME280;15377;48.540;9.268;2023-05-06T03:35:02;97460.72;;;10.78;100.00
5284;BME280;15377;48.540;9.268;2023-05-06T03:37:28;97484.94;;;10.74;100.00
5284;BME280;15377;48.540;9.268;2023-05-06T03:39:54;97482.53;;;10.67;100.00
5284;BME280;15377;48.540;9.268;2023-05-06T03:42:20;97471.28;;;10.56;100.00
5284;BME280;15377;48.540;9.268;2023-05-06T03:44:45;97476.50;;;10.54;100.00
5284;BME280;15377;48.540;9.268;2023-05-06T03:47:11;97476.78;;;10.56;100.00
5284;BME280;15377;48.540;9.268;2023-05-06T03:49:36;97475.34;;;10.84;100.00
5284;BME280;15377;48.540;9.268;2023-05-06T03:52:01;97471.66;;;10.87;100.00
5284;BME280;15377;48.540;9.268;2023-05-06T03:54:27;97486.38;;;10.84;100.00
5284;BME280;15377;48.540;9.268;2023-05-06T03:56:52;97472.88;;;10.72;100.00
5284;BME280;15377;48.540;9.268;2023-05-06T03:59:17;97474.03;;;10.56;100.00
5284;BME280;15377;48.540;9.268;2023-05-06T04:01:43;97482.19;;;10.74;100.00
5284;BME280;15377;48.540;9.268;2023-05-06T04:04:08;97487.25;;;10.67;100.00
5284;BME280;15377;48.540;9.268;2023-05-06T04:06:33;97491.94;;;10.75;100.00
5284;BME280;15377;48.540;9.268;2023-05-06T04:08:59;97488.50;;;10.66;100.00
5284;BME280;15377;48.540;9.268;2023-05-06T04:11:24;97477.97;;;10.41;100.00
5284;BME280;15377;48.540;9.268;2023-05-06T04:13:49;97502.78;;;10.55;100.00
5284;BME280;15377;48.540;9.268;2023-05-06T04:16:15;97448.28;;;10.45;100.00
5284;BME280;15377;48.540;9.268;2023-05-06T04:18:40;97501.66;;;10.85;100.00
5284;BME280;15377;48.540;9.268;2023-05-06T04:21:06;97473.47;;;10.90;100.00
5284;BME280;15377;48.540;9.268;2023-05-06T04:23:31;97497.03;;;10.91;100.00
5284;BME280;15377;48.540;9.268;2023-05-06T04:25:57;97487.19;;;10.76;100.00
5284;BME280;15377;48.540;9.268;2023-05-06T04:28:23;97494.63;;;10.61;100.00
5284;BME280;15377;48.540;9.268;2023-05-06T04:30:48;97486.34;;;10.46;100.00
5284;BME280;15377;48.540;9.268;2023-05-06T04:33:14;97474.81;;;10.33;100.00
5284;BME280;15377;48.540;9.268;2023-05-06T04:35:39;97495.88;;;10.36;100.00
5284;BME280;15377;48.540;9.268;2023-05-06T04:38:05;97494.94;;;10.39;100.00
5284;BME280;15377;48.540;9.268;2023-05-06T04:40:31;97490.56;;;10.33;100.00
5284;BME280;15377;48.540;9.268;2023-05-06T04:42:57;97486.16;;;10.26;100.00
5284;BME280;15377;48.540;9.268;2023-05-06T04:45:22;97490.38;;;10.36;100.00
5284;BME280;15377;48.540;9.268;2023-05-06T04:47:48;97503.47;;;10.41;100.00
5284;BME280;15377;48.540;9.268;2023-05-06T04:50:14;97502.75;;;10.41;100.00
5284;BME280;15377;48.540;9.268;2023-05-06T04:52:39;97489.44;;;10.39;100.00
5284;BME280;15377;48.540;9.268;2023-05-06T04:55:05;97477.56;;;10.33;100.00
5284;BME280;15377;48.540;9.268;2023-05-06T04:57:30;97492.13;;;10.48;100.00
5284;BME280;15377;48.540;9.268;2023-05-06T04:59:56;97503.38;;;10.59;100.00
5284;BME280;15377;48.540;9.268;2023-05-06T05:02:21;97510.16;;;10.73;100.00
5284;BME280;15377;48.540;9.268;2023-05-06T05:04:47;97515.41;;;10.85;100.00
5284;BME280;15377;48.540;9.268;2023-05-06T05:07:12;97509.84;;;10.94;100.00
5284;BME280;15377;48.540;9.268;2023-05-06T05:09:38;97474.13;;;10.85;100.00
5284;BME280;15377;48.540;9.268;2023-05-06T05:12:03;97497.41;;;11.13;100.00
5284;BME280;15377;48.540;9.268;2023-05-06T05:14:29;97512.28;;;11.30;100.00
5284;BME280;15377;48.540;9.268;2023-05-06T05:16:54;97503.94;;;11.39;100.00
5284;BME280;15377;48.540;9.268;2023-05-06T05:19:20;97512.66;;;11.52;100.00
5284;BME280;15377;48.540;9.268;2023-05-06T05:21:45;97510.78;;;11.58;100.00
5284;BME280;15377;48.540;9.268;2023-05-06T05:24:11;97519.81;;;11.73;100.00
5284;BME280;15377;48.540;9.268;2023-05-06T05:26:36;97523.78;;;11.86;100.00
5284;BME280;15377;48.540;9.268;2023-05-06T05:29:02;97526.75;;;11.97;100.00
5284;BME280;15377;48.540;9.268;2023-05-06T05:31:27;97521.03;;;12.01;100.00
5284;BME280;15377;48.540;9.268;2023-05-06T05:33:53;97519.47;;;12.14;100.00
5284;BME280;15377;48.540;9.268;2023-05-06T05:36:18;97523.16;;;12.26;100.00
5284;BME280;15377;48.540;9.268;2023-05-06T05:38:44;97523.59;;;12.39;100.00
5284;BME280;15377;48.540;9.268;2023-05-06T05:41:11;97529.34;;;12.55;100.00
5284;BME280;15377;48.540;9.268;2023-05-06T05:43:37;97520.88;;;12.59;100.00
5284;BME280;15377;48.540;9.268;2023-05-06T05:46:02;97524.25;;;12.68;100.00
5284;BME280;15377;48.540;9.268;2023-05-06T05:48:28;97524.47;;;12.85;100.00
5284;BME280;15377;48.540;9.268;2023-05-06T05:50:55;97516.03;;;12.94;100.00
5284;BME280;15377;48.540;9.268;2023-05-06T05:53:21;97514.84;;;12.95;100.00
5284;BME280;15377;48.540;9.268;2023-05-06T05:55:46;97531.13;;;13.13;100.00
5284;BME280;15377;48.540;9.268;2023-05-06T05:58:12;97527.09;;;13.14;100.00
5284;BME280;15377;48.540;9.268;2023-05-06T06:00:37;97534.16;;;13.15;100.00
5284;BME280;15377;48.540;9.268;2023-05-06T06:03:02;97533.03;;;13.27;100.00
5284;BME280;15377;48.540;9.268;2023-05-06T06:05:28;97529.84;;;13.34;100.00
5284;BME280;15377;48.540;9.268;2023-05-06T06:07:53;97529.28;;;13.30;100.00
5284;BME280;15377;48.540;9.268;2023-05-06T06:10:18;97540.75;;;13.43;100.00
5284;BME280;15377;48.540;9.268;2023-05-06T06:12:44;97532.56;;;13.54;100.00
5284;BME280;15377;48.540;9.268;2023-05-06T06:15:09;97521.28;;;13.57;100.00
5284;BME280;15377;48.540;9.268;2023-05-06T06:17:35;97524.94;;;13.74;100.00
5284;BME280;15377;48.540;9.268;2023-05-06T06:20:00;97519.47;;;13.80;100.00
5284;BME280;15377;48.540;9.268;2023-05-06T06:22:26;97532.66;;;13.96;100.00
5284;BME280;15377;48.540;9.268;2023-05-06T06:24:51;97528.13;;;13.93;100.00
5284;BME280;15377;48.540;9.268;2023-05-06T06:27:18;97535.19;;;13.94;100.00
5284;BME280;15377;48.540;9.268;2023-05-06T06:29:43;97522.00;;;13.83;100.00
5284;BME280;15377;48.540;9.268;2023-05-06T06:32:11;97527.34;;;13.92;100.00
5284;BME280;15377;48.540;9.268;2023-05-06T06:34:36;97535.84;;;14.14;100.00
5284;BME280;15377;48.540;9.268;2023-05-06T06:37:01;97524.44;;;14.32;100.00
5284;BME280;15377;48.540;9.268;2023-05-06T06:39:27;97528.75;;;14.39;100.00
5284;BME280;15377;48.540;9.268;2023-05-06T06:41:55;97534.28;;;14.39;100.00
5284;BME280;15377;48.540;9.268;2023-05-06T06:44:20;97540.88;;;14.47;100.00
5284;BME280;15377;48.540;9.268;2023-05-06T06:46:46;97535.13;;;14.50;100.00
5284;BME280;15377;48.540;9.268;2023-05-06T06:49:11;97539.63;;;14.48;100.00
5284;BME280;15377;48.540;9.268;2023-05-06T06:51:36;97544.97;;;14.57;100.00
5284;BME280;15377;48.540;9.268;2023-05-06T06:54:02;97547.75;;;14.57;100.00
5284;BME280;15377;48.540;9.268;2023-05-06T06:56:27;97542.31;;;14.73;100.00
5284;BME280;15377;48.540;9.268;2023-05-06T06:58:52;97542.81;;;14.77;100.00
5284;BME280;15377;48.540;9.268;2023-05-06T07:01:18;97545.06;;;14.68;100.00
5284;BME280;15377;48.540;9.268;2023-05-06T07:03:43;97544.56;;;14.74;100.00
5284;BME280;15377;48.540;9.268;2023-05-06T07:06:09;97546.72;;;15.01;100.00
5284;BME280;15377;48.540;9.268;2023-05-06T07:08:34;97540.31;;;15.37;100.00
5284;BME280;15377;48.540;9.268;2023-05-06T07:11:00;97554.22;;;15.43;100.00
5284;BME280;15377;48.540;9.268;2023-05-06T07:13:25;97553.09;;;15.18;100.00
5284;BME280;15377;48.540;9.268;2023-05-06T07:15:50;97547.69;;;14.98;100.00
5284;BME280;15377;48.540;9.268;2023-05-06T07:18:16;97555.25;;;14.92;100.00
5284;BME280;15377;48.540;9.268;2023-05-06T07:20:41;97566.97;;;15.29;100.00
5284;BME280;15377;48.540;9.268;2023-05-06T07:23:06;97561.28;;;15.55;100.00
5284;BME280;15377;48.540;9.268;2023-05-06T07:25:32;97555.00;;;15.65;100.00
5284;BME280;15377;48.540;9.268;2023-05-06T07:27:57;97541.88;;;15.60;100.00
5284;BME280;15377;48.540;9.268;2023-05-06T07:30:22;97575.22;;;15.71;100.00
5284;BME280;15377;48.540;9.268;2023-05-06T07:32:48;97577.44;;;15.56;100.00
5284;BME280;15377;48.540;9.268;2023-05-06T07:35:13;97584.72;;;15.48;100.00
5284;BME280;15377;48.540;9.268;2023-05-06T07:37:39;97578.66;;;15.44;100.00
5284;BME280;15377;48.540;9.268;2023-05-06T07:40:05;97588.75;;;15.47;100.00
5284;BME280;15377;48.540;9.268;2023-05-06T07:42:30;97585.44;;;15.32;100.00
5284;BME280;15377;48.540;9.268;2023-05-06T07:44:56;97581.59;;;15.24;100.00
5284;BME280;15377;48.540;9.268;2023-05-06T07:47:26;97586.72;;;15.42;100.00
5284;BME280;15377;48.540;9.268;2023-05-06T07:49:52;97594.38;;;15.69;100.00
5284;BME280;15377;48.540;9.268;2023-05-06T07:52:18;97593.91;;;15.87;100.00
5284;BME280;15377;48.540;9.268;2023-05-06T07:54:43;97589.63;;;16.03;100.00
5284;BME280;15377;48.540;9.268;2023-05-06T07:57:09;97591.41;;;16.33;100.00
5284;BME280;15377;48.540;9.268;2023-05-06T07:59:34;97597.75;;;16.56;100.00
5284;BME280;15377;48.540;9.268;2023-05-06T08:01:59;97611.38;;;16.65;100.00
5284;BME280;15377;48.540;9.268;2023-05-06T08:04:25;97609.34;;;16.65;100.00
5284;BME280;15377;48.540;9.268;2023-05-06T08:06:50;97616.44;;;16.50;100.00
5284;BME280;15377;48.540;9.268;2023-05-06T08:09:16;97626.50;;;16.69;100.00
5284;BME280;15377;48.540;9.268;2023-05-06T08:11:41;97624.25;;;16.62;100.00
5284;BME280;15377;48.540;9.268;2023-05-06T08:14:06;97618.66;;;16.90;100.00
5284;BME280;15377;48.540;9.268;2023-05-06T08:16:34;97611.03;;;17.12;100.00
5284;BME280;15377;48.540;9.268;2023-05-06T08:18:59;97627.16;;;17.30;100.00
5284;BME280;15377;48.540;9.268;2023-05-06T08:21:25;97621.34;;;17.23;100.00
5284;BME280;15377;48.540;9.268;2023-05-06T08:23:50;97624.13;;;17.28;100.00
5284;BME280;15377;48.540;9.268;2023-05-06T08:26:16;97626.63;;;17.26;100.00
5284;BME280;15377;48.540;9.268;2023-05-06T08:28:42;97635.25;;;17.17;100.00
5284;BME280;15377;48.540;9.268;2023-05-06T08:31:07;97637.75;;;17.26;100.00
5284;BME280;15377;48.540;9.268;2023-05-06T08:33:32;97628.63;;;17.42;100.00
5284;BME280;15377;48.540;9.268;2023-05-06T08:35:58;97640.81;;;17.28;100.00
5284;BME280;15377;48.540;9.268;2023-05-06T08:38:25;97641.34;;;17.16;100.00
5284;BME280;15377;48.540;9.268;2023-05-06T08:40:52;97648.63;;;17.30;100.00
5284;BME280;15377;48.540;9.268;2023-05-06T08:43:20;97646.63;;;17.30;100.00
5284;BME280;15377;48.540;9.268;2023-05-06T08:45:45;97643.31;;;17.26;100.00
5284;BME280;15377;48.540;9.268;2023-05-06T08:48:12;97647.66;;;17.27;100.00
5284;BME280;15377;48.540;9.268;2023-05-06T08:50:41;97643.59;;;17.23;100.00
5284;BME280;15377;48.540;9.268;2023-05-06T08:53:13;97646.06;;;17.48;100.00
5284;BME280;15377;48.540;9.268;2023-05-06T08:55:42;97643.03;;;17.52;100.00
5284;BME280;15377;48.540;9.268;2023-05-06T08:58:10;97631.06;;;17.68;100.00
5284;BME280;15377;48.540;9.268;2023-05-06T09:00:37;97644.38;;;17.91;100.00
5284;BME280;15377;48.540;9.268;2023-05-06T09:03:03;97640.00;;;18.01;100.00
5284;BME280;15377;48.540;9.268;2023-05-06T09:05:28;97641.50;;;18.02;100.00
5284;BME280;15377;48.540;9.268;2023-05-06T09:07:53;97641.59;;;18.26;100.00
5284;BME280;15377;48.540;9.268;2023-05-06T09:10:20;97634.06;;;18.56;100.00
5284;BME280;15377;48.540;9.268;2023-05-06T09:12:46;97641.97;;;18.76;100.00
5284;BME280;15377;48.540;9.268;2023-05-06T09:15:11;97635.38;;;19.03;100.00
5284;BME280;15377;48.540;9.268;2023-05-06T09:17:37;97636.19;;;19.46;100.00
5284;BME280;15377;48.540;9.268;2023-05-06T09:20:03;97631.72;;;19.80;100.00
5284;BME280;15377;48.540;9.268;2023-05-06T09:22:32;97629.47;;;19.97;100.00
5284;BME280;15377;48.540;9.268;2023-05-06T09:24:58;97634.84;;;20.45;100.00
5284;BME280;15377;48.540;9.268;2023-05-06T09:30:09;97630.34;;;20.42;100.00
5284;BME280;15377;48.540;9.268;2023-05-06T09:32:36;97642.59;;;20.83;100.00
5284;BME280;15377;48.540;9.268;2023-05-06T09:35:01;97645.16;;;21.26;100.00
5284;BME280;15377;48.540;9.268;2023-05-06T09:37:27;97636.25;;;21.27;100.00
5284;BME280;15377;48.540;9.268;2023-05-06T09:39:54;97631.94;;;21.65;100.00
5284;BME280;15377;48.540;9.268;2023-05-06T09:42:25;97638.66;;;21.96;100.00
5284;BME280;15377;48.540;9.268;2023-05-06T09:44:55;97625.84;;;22.34;100.00
5284;BME280;15377;48.540;9.268;2023-05-06T09:47:23;97627.38;;;22.76;100.00
5284;BME280;15377;48.540;9.268;2023-05-06T09:49:49;97633.75;;;22.76;100.00
5284;BME280;15377;48.540;9.268;2023-05-06T09:52:15;97634.00;;;23.26;100.00
5284;BME280;15377;48.540;9.268;2023-05-06T09:54:41;97610.19;;;24.71;100.00
5284;BME280;15377;48.540;9.268;2023-05-06T09:57:08;97630.34;;;25.82;99.90
5284;BME280;15377;48.540;9.268;2023-05-06T09:59:34;97622.09;;;26.63;87.96
5284;BME280;15377;48.540;9.268;2023-05-06T10:02:01;97617.81;;;27.28;85.32
5284;BME280;15377;48.540;9.268;2023-05-06T10:04:28;97600.56;;;27.75;78.12
5284;BME280;15377;48.540;9.268;2023-05-06T10:06:55;97599.59;;;28.06;68.65
5284;BME280;15377;48.540;9.268;2023-05-06T10:09:25;97597.75;;;26.92;70.50
5284;BME280;15377;48.540;9.268;2023-05-06T10:11:52;97605.25;;;26.97;64.96
5284;BME280;15377;48.540;9.268;2023-05-06T10:14:18;97599.22;;;27.42;71.46
5284;BME280;15377;48.540;9.268;2023-05-06T10:16:47;97596.25;;;28.34;69.01
5284;BME280;15377;48.540;9.268;2023-05-06T10:19:16;97592.00;;;29.34;59.84
5284;BME280;15377;48.540;9.268;2023-05-06T10:21:53;97608.91;;;28.96;51.98
5284;BME280;15377;48.540;9.268;2023-05-06T10:24:29;97596.78;;;29.41;54.91
5284;BME280;15377;48.540;9.268;2023-05-06T10:26:57;97593.84;;;29.96;56.16
5284;BME280;15377;48.540;9.268;2023-05-06T10:29:24;97585.34;;;30.55;56.27
5284;BME280;15377;48.540;9.268;2023-05-06T10:31:54;97583.03;;;31.12;49.05
5284;BME280;15377;48.540;9.268;2023-05-06T10:34:21;97573.56;;;30.49;44.50
5284;BME280;15377;48.540;9.268;2023-05-06T10:36:50;97576.63;;;31.33;47.93
5284;BME280;15377;48.540;9.268;2023-05-06T10:39:17;97575.75;;;31.30;43.31
5284;BME280;15377;48.540;9.268;2023-05-06T10:41:43;97579.75;;;30.17;46.71
5284;BME280;15377;48.540;9.268;2023-05-06T10:44:09;97563.16;;;30.82;50.56
5284;BME280;15377;48.540;9.268;2023-05-06T10:46:55;97553.66;;;31.82;48.15
5284;BME280;15377;48.540;9.268;2023-05-06T10:49:20;97551.09;;;31.65;43.51
5284;BME280;15377;48.540;9.268;2023-05-06T10:51:46;97558.88;;;31.86;44.79
5284;BME280;15377;48.540;9.268;2023-05-06T10:59:12;97551.06;;;33.56;38.96
5284;BME280;15377;48.540;9.268;2023-05-06T11:01:39;97540.72;;;34.24;39.92
5284;BME280;15377;48.540;9.268;2023-05-06T11:04:13;97542.03;;;34.73;35.61
5284;BME280;15377;48.540;9.268;2023-05-06T11:09:16;97541.78;;;34.69;35.64
5284;BME280;15377;48.540;9.268;2023-05-06T11:12:02;97535.88;;;34.27;35.43
5284;BME280;15377;48.540;9.268;2023-05-06T11:14:34;97533.66;;;34.00;36.33
5284;BME280;15377;48.540;9.268;2023-05-06T11:17:07;97532.28;;;34.01;36.34
5284;BME280;15377;48.540;9.268;2023-05-06T11:19:37;97515.88;;;34.02;38.61
5284;BME280;15377;48.540;9.268;2023-05-06T11:22:05;97523.56;;;33.49;33.58
5284;BME280;15377;48.540;9.268;2023-05-06T11:24:37;97523.16;;;32.84;35.67
5284;BME280;15377;48.540;9.268;2023-05-06T11:27:03;97523.28;;;32.74;35.06
5284;BME280;15377;48.540;9.268;2023-05-06T11:29:30;97518.31;;;32.52;37.42
5284;BME280;15377;48.540;9.268;2023-05-06T11:31:56;97515.66;;;32.21;31.09
5284;BME280;15377;48.540;9.268;2023-05-06T11:34:26;97522.13;;;33.14;32.65
5284;BME280;15377;48.540;9.268;2023-05-06T11:36:58;97512.19;;;32.23;34.21
5284;BME280;15377;48.540;9.268;2023-05-06T11:39:26;97516.69;;;32.37;35.85
5284;BME280;15377;48.540;9.268;2023-05-06T11:42:00;97513.56;;;31.57;37.05
5284;BME280;15377;48.540;9.268;2023-05-06T11:44:32;97516.06;;;31.63;35.89
5284;BME280;15377;48.540;9.268;2023-05-06T11:47:03;97509.94;;;30.73;37.65
5284;BME280;15377;48.540;9.268;2023-05-06T11:49:40;97513.09;;;31.40;37.77
5284;BME280;15377;48.540;9.268;2023-05-06T11:52:10;97512.97;;;31.91;35.29
5284;BME280;15377;48.540;9.268;2023-05-06T11:54:41;97496.75;;;31.94;34.01
5284;BME280;15377;48.540;9.268;2023-05-06T11:57:07;97510.00;;;30.54;33.22
5284;BME280;15377;48.540;9.268;2023-05-06T11:59:35;97501.13;;;29.32;38.81
5284;BME280;15377;48.540;9.268;2023-05-06T12:02:03;97510.06;;;31.26;37.31
5284;BME280;15377;48.540;9.268;2023-05-06T12:04:39;97509.97;;;32.56;36.12
5284;BME280;15377;48.540;9.268;2023-05-06T12:07:06;97514.94;;;32.44;32.48
5284;BME280;15377;48.540;9.268;2023-05-06T12:09:32;97507.97;;;33.27;32.20
5284;BME280;15377;48.540;9.268;2023-05-06T12:11:59;97514.06;;;33.58;31.69
5284;BME280;15377;48.540;9.268;2023-05-06T12:14:25;97506.88;;;33.57;31.98
5284;BME280;15377;48.540;9.268;2023-05-06T12:16:51;97508.59;;;31.58;35.11
5284;BME280;15377;48.540;9.268;2023-05-06T12:19:16;97507.81;;;29.84;33.52
5284;BME280;15377;48.540;9.268;2023-05-06T12:21:43;97500.66;;;30.72;35.56
5284;BME280;15377;48.540;9.268;2023-05-06T12:24:09;97495.63;;;31.13;33.38
5284;BME280;15377;48.540;9.268;2023-05-06T12:26:47;97493.84;;;31.08;31.69
5284;BME280;15377;48.540;9.268;2023-05-06T12:29:16;97473.88;;;31.38;32.38
5284;BME280;15377;48.540;9.268;2023-05-06T12:31:45;97496.69;;;31.08;31.80
5284;BME280;15377;48.540;9.268;2023-05-06T12:34:12;97492.91;;;29.74;35.57
5284;BME280;15377;48.540;9.268;2023-05-06T12:36:42;97497.91;;;30.84;38.65
5284;BME280;15377;48.540;9.268;2023-05-06T12:39:11;97499.63;;;31.40;34.56
5284;BME280;15377;48.540;9.268;2023-05-06T12:41:42;97497.81;;;31.24;35.08
5284;BME280;15377;48.540;9.268;2023-05-06T12:46:59;97488.81;;;32.59;33.46
5284;BME280;15377;48.540;9.268;2023-05-06T12:49:25;97491.09;;;32.16;31.03
5284;BME280;15377;48.540;9.268;2023-05-06T12:52:07;97494.81;;;32.08;32.74
5284;BME280;15377;48.540;9.268;2023-05-06T12:54:33;97477.56;;;31.62;33.47
5284;BME280;15377;48.540;9.268;2023-05-06T12:56:58;97493.84;;;31.50;35.05
5284;BME280;15377;48.540;9.268;2023-05-06T12:59:24;97484.66;;;31.19;33.54
5284;BME280;15377;48.540;9.268;2023-05-06T13:01:50;97493.16;;;29.97;35.10
5284;BME280;15377;48.540;9.268;2023-05-06T13:04:16;97483.25;;;28.74;38.34
5284;BME280;15377;48.540;9.268;2023-05-06T13:06:41;97481.88;;;28.56;39.52
5284;BME280;15377;48.540;9.268;2023-05-06T13:09:06;97471.53;;;28.42;40.23
5284;BME280;15377;48.540;9.268;2023-05-06T13:11:32;97470.88;;;28.34;39.54
5284;BME280;15377;48.540;9.268;2023-05-06T13:13:57;97478.72;;;27.13;40.65
5284;BME280;15377;48.540;9.268;2023-05-06T13:16:23;97471.69;;;25.89;42.80
5284;BME280;15377;48.540;9.268;2023-05-06T13:18:48;97477.44;;;26.55;43.83
5284;BME280;15377;48.540;9.268;2023-05-06T13:21:14;97464.84;;;27.41;45.67
5284;BME280;15377;48.540;9.268;2023-05-06T13:23:39;97464.19;;;27.50;42.70
5284;BME280;15377;48.540;9.268;2023-05-06T13:26:11;97444.09;;;27.29;40.32
5284;BME280;15377;48.540;9.268;2023-05-06T13:28:36;97437.09;;;27.13;42.21